Data for 05/06/2016

Time Sea-Level Adjusted Pressure Absolute Pressure Temperature Relative Humidity Dew Point   
(mb) (inHg) (mb) (inHg) (C) (F) (%) (C) (F)
00:05 1016 30 846 24.98 15.2 59.3 40 1.8 35.3
00:10 1016 30 846 24.98 15.1 59.1 44 2.9 37.3
00:15 1017 30.03 846 24.98 14.4 57.8 47 3.2 37.8
00:20 1017 30.03 846 24.98 14 57.2 51 4 39.2
00:25 1017 30.03 846 24.98 13.8 56.8 51 3.9 39.1
00:30 1017 30.03 846 24.98 13.9 57 51 3.9 39.1
00:35 1017 30.03 846 24.98 13.8 56.8 52 4.1 39.4
00:40 1017 30.03 846 24.98 13.6 56.4 53 4.1 39.4
00:45 1017 30.03 846 24.98 13.4 56.2 54 4.3 39.7
00:50 1017 30.03 846 24.98 13.2 55.8 53 4 39.2
00:55 1017 30.03 846 24.98 13.4 56.2 52 3.8 38.9
01:00 1017 30.03 846 24.98 13.5 56.2 53 4 39.3
01:05 1017 30.03 846 24.98 13.3 56 53 4.1 39.3
01:10 1017 30.03 846 24.98 13.3 56 53 4 39.3
01:15 1017 30.03 846 24.98 13.2 55.7 54 4.2 39.5
01:20 1017 30.03 846 24.98 13.2 55.7 53 3.8 38.8
01:25 1017 30.03 846 24.98 13.4 56.2 53 4 39.2
01:30 1017 30.03 846 24.98 13.4 56.2 53 4.1 39.4
01:35 1017 30.03 846 24.98 13.3 55.9 53 4 39.2
01:40 1017 30.03 846 24.98 13.2 55.8 53 4 39.2
01:45 1017 30.03 847 25.01 13 55.3 54 4.1 39.3
01:50 1017 30.03 847 25.01 12.7 54.9 55 4.1 39.3
01:55 1017 30.03 847 25.01 12.4 54.3 56 3.9 39
02:00 1017 30.03 847 25.01 12.4 54.3 55 3.7 38.7
02:05 1018 30.06 847 25.01 12.5 54.4 55 3.9 38.9
02:10 1018 30.06 847 25.01 12.2 54 57 3.9 39.1
02:15 1018 30.06 847 25.01 12 53.7 58 4 39.3
02:20 1018 30.06 847 25.01 11.8 53.2 58 3.8 38.8
02:25 1018 30.06 847 25.01 11.7 53.1 59 4 39.3
02:30 1018 30.06 847 25.01 11.6 53 59 3.9 38.9
02:35 1018 30.06 847 25.01 11.6 52.8 59 4 39.2
02:40 1018 30.06 847 25.01 11.7 53 59 4 39.2
02:45 1018 30.06 847 25.01 11.4 52.4 60 4 39.3
02:50 1018 30.06 848 25.04 11.1 52 61 4 39.2
02:55 1018 30.06 848 25.04 11 51.7 61 3.9 39
03:00 1018 30.06 848 25.04 11 51.8 61 3.8 38.9
03:05 1018 30.06 848 25.04 11 51.9 60 3.7 38.6
03:10 1019 30.09 848 25.04 11.2 52.1 60 3.8 38.9
03:15 1019 30.09 848 25.04 11.1 51.9 61 4 39.2
03:20 1019 30.09 848 25.04 10.7 51.3 62 3.9 39
03:25 1019 30.09 848 25.04 10.7 51.3 62 3.8 38.8
03:30 1019 30.09 848 25.04 10.7 51.3 62 3.8 38.9
03:35 1019 30.09 848 25.04 10.8 51.4 62 3.8 38.9
03:40 1019 30.09 848 25.04 10.7 51.2 62 3.9 38.9
03:45 1019 30.09 848 25.04 10.6 51.2 62 3.6 38.6
03:50 1019 30.09 848 25.04 10.8 51.4 62 3.8 38.9
03:55 1019 30.09 848 25.04 10.9 51.5 61 3.6 38.5
04:00 1019 30.09 848 25.04 10.9 51.6 61 3.7 38.6
04:05 1019 30.09 848 25.04 11 51.8 61 3.8 38.8
04:10 1019 30.09 848 25.04 10.9 51.5 62 3.9 39
04:15 1019 30.09 848 25.04 10.7 51.3 62 3.7 38.7
04:20 1019 30.09 848 25.04 10.9 51.6 61 3.6 38.5
04:25 1019 30.09 848 25.04 11.2 52.2 60 3.9 39
04:30 1019 30.09 849 25.07 11.3 52.3 60 3.7 38.7
04:35 1019 30.09 849 25.07 11.6 52.9 58 3.8 38.8
04:40 1019 30.09 849 25.07 11.8 53.3 58 3.9 39.1
04:45 1019 30.09 849 25.07 11.9 53.4 59 4.1 39.4
04:50 1020 30.12 849 25.07 12 53.5 57 3.8 38.9
04:55 1020 30.12 849 25.07 12.3 54.2 56 3.8 38.9
05:00 1020 30.12 849 25.07 12.4 54.3 56 4 39.2
05:05 1020 30.12 849 25.07 12.3 54.1 56 3.9 39
05:10 1020 30.12 849 25.07 12.3 54.1 56 3.7 38.7
05:15 1020 30.12 849 25.07 12.3 54.1 56 3.7 38.7
05:20 1020 30.12 849 25.07 12.3 54.1 55 3.6 38.4
05:25 1020 30.12 849 25.07 12.3 54.1 56 3.7 38.7
05:30 1020 30.12 850 25.1 12.2 53.9 56 3.6 38.5
05:35 1020 30.12 850 25.1 12.2 53.9 56 3.6 38.5
05:40 1020 30.12 850 25.1 12.2 53.9 55 3.5 38.3
05:45 1020 30.12 850 25.1 12.2 54 55 3.4 38.1
05:50 1020 30.12 850 25.1 12.2 54 55 3.4 38.2
05:55 1020 30.12 850 25.1 12.2 54 55 3.4 38.1
06:00 1020 30.12 850 25.1 12.3 54.2 54 3.3 37.9
06:05 1020 30.12 850 25.1 12.6 54.6 52 3.2 37.7
06:10 1020 30.12 850 25.1 12.7 54.9 52 3.2 37.8
06:15 1020 30.12 850 25.1 12.8 55 51 3.1 37.5
06:20 1021 30.15 850 25.1 12.9 55.2 50 2.6 36.7
06:25 1021 30.15 850 25.1 13 55.3 49 2.7 36.8
06:30 1021 30.15 850 25.1 12.9 55.3 50 2.7 36.9
06:35 1021 30.15 850 25.1 13 55.3 50 2.7 36.9
06:40 1021 30.15 850 25.1 12.9 55.3 50 2.7 36.9
06:45 1021 30.15 850 25.1 12.9 55.3 50 2.9 37.2
06:50 1021 30.15 850 25.1 12.9 55.2 50 2.9 37.2
06:55 1021 30.15 850 25.1 12.8 55.1 50 2.9 37.1
07:00 1021 30.15 851 25.13 12.8 55 51 2.9 37.2
07:05 1021 30.15 851 25.13 12.8 55 51 2.8 37.1
07:10 1021 30.15 851 25.13 12.8 55.1 51 2.9 37.2
07:15 1021 30.15 851 25.13 13 55.3 50 2.8 37
07:20 1021 30.15 851 25.13 13 55.3 50 2.8 37.1
07:25 1021 30.15 851 25.13 12.9 55.3 50 2.8 37.1
07:30 1021 30.15 851 25.13 12.9 55.1 51 3 37.4
07:35 1021 30.15 851 25.13 12.9 55.1 51 3.1 37.5
07:40 1022 30.18 851 25.13 12.8 55.1 51 3.1 37.6
07:45 1022 30.18 851 25.13 12.8 55 52 3.2 37.7
07:50 1022 30.18 851 25.13 12.9 55.2 52 3.3 38
07:55 1022 30.18 851 25.13 13.1 55.5 51 3.3 37.9
08:00 1022 30.18 851 25.13 13.2 55.7 52 3.5 38.2
08:05 1022 30.18 851 25.13 13.2 55.7 51 3.3 37.9
08:10 1022 30.18 851 25.13 13.1 55.5 52 3.5 38.3
08:15 1022 30.18 851 25.13 13.3 56 52 3.7 38.6
08:20 1022 30.18 851 25.13 13.3 55.9 52 3.7 38.7
08:25 1022 30.18 851 25.13 13 55.3 53 3.6 38.5
08:30 1022 30.18 851 25.13 12.8 55.1 53 3.6 38.5
08:35 1022 30.18 851 25.13 12.8 55 53 3.6 38.4
08:40 1022 30.18 851 25.13 12.7 54.9 53 3.5 38.4
08:45 1022 30.18 851 25.13 12.8 55 54 3.6 38.5
08:50 1022 30.18 851 25.13 12.8 55 53 3.6 38.5
08:55 1022 30.18 851 25.13 12.6 54.7 54 3.6 38.6
09:00 1022 30.18 851 25.13 12.6 54.6 54 3.6 38.4
09:05 1022 30.18 851 25.13 12.6 54.7 54 3.5 38.4
09:10 1022 30.18 851 25.13 12.6 54.6 54 3.6 38.5
09:15 1022 30.18 851 25.13 12.7 54.9 53 3.5 38.2
09:20 1022 30.18 851 25.13 12.8 55 54 3.7 38.6
09:25 1022 30.18 851 25.13 12.9 55.1 53 3.7 38.6
09:30 1022 30.18 851 25.13 12.8 55.1 54 3.8 38.8
09:35 1022 30.18 851 25.13 12.7 54.9 54 3.7 38.7
09:40 1022 30.18 851 25.13 12.7 54.8 54 3.8 38.8
09:45 1022 30.18 851 25.13 12.7 54.9 54 3.6 38.5
09:50 1022 30.18 851 25.13 12.9 55.2 54 3.8 38.8
09:55 1021 30.15 851 25.13 13 55.4 54 3.9 39.1
10:00 1022 30.18 851 25.13 13 55.4 54 4 39.3
10:05 1022 30.18 851 25.13 13 55.5 54 3.9 39.1
10:10 1022 30.18 851 25.13 13.1 55.5 53 3.9 39
10:15 1022 30.18 851 25.13 13.2 55.7 53 4 39.1
10:20 1022 30.18 851 25.13 13.2 55.7 53 3.8 38.8
10:25 1022 30.18 851 25.13 13.1 55.6 53 3.9 39.1
10:30 1022 30.18 851 25.13 13.2 55.8 53 3.9 39
10:35 1022 30.18 851 25.13 13.2 55.7 53 4 39.2
10:40 1022 30.18 851 25.13 13.1 55.6 53 3.9 39.1
10:45 1022 30.18 851 25.13 13.1 55.5 54 4.1 39.3
10:50 1022 30.18 851 25.13 13.1 55.5 54 4.1 39.4
10:55 1022 30.18 851 25.13 13.1 55.7 54 4.1 39.4
11:00 1022 30.18 851 25.13 13.1 55.5 54 4.1 39.4
11:05 1022 30.18 851 25.13 13.1 55.5 55 4.2 39.6
11:10 1022 30.18 851 25.13 13 55.4 54 4 39.2
11:15 1021 30.15 851 25.13 13 55.3 55 4.2 39.6
11:20 1021 30.15 851 25.13 12.9 55.2 56 4.3 39.7
11:25 1021 30.15 851 25.13 12.9 55.1 56 4.3 39.7
11:30 1021 30.15 851 25.13 12.8 55.1 56 4.3 39.7
11:35 1021 30.15 851 25.13 13 55.4 55 4.2 39.5
11:40 1021 30.15 851 25.13 12.9 55.3 55 4.2 39.6
11:45 1021 30.15 851 25.13 12.7 54.9 57 4.5 40.1
11:50 1021 30.15 851 25.13 12.6 54.6 57 4.2 39.6
11:55 1021 30.15 851 25.13 12.5 54.4 57 4.3 39.7
12:00 1022 30.18 851 25.13 12.5 54.5 57 4.4 39.8
12:05 1022 30.18 851 25.13 12.6 54.7 57 4.4 39.9
12:10 1022 30.18 851 25.13 12.6 54.6 57 4.4 40
12:15 1022 30.18 851 25.13 12.8 55 57 4.5 40.2
12:20 1022 30.18 851 25.13 12.9 55.2 56 4.4 39.9
12:25 1022 30.18 851 25.13 12.9 55.2 56 4.5 40
12:30 1021 30.15 851 25.13 12.9 55.1 55 4.2 39.6
12:35 1021 30.15 851 25.13 12.7 54.8 57 4.3 39.8
12:40 1021 30.15 851 25.13 12.6 54.8 57 4.4 39.8
12:45 1021 30.15 851 25.13 12.6 54.6 57 4.2 39.6
12:50 1021 30.15 851 25.13 12.5 54.5 57 4.3 39.8
12:55 1021 30.15 851 25.13 12.5 54.6 57 4.4 39.9
13:00 1021 30.15 851 25.13 12.4 54.4 58 4.4 39.8
13:05 1021 30.15 851 25.13 12.4 54.2 58 4.3 39.8
13:10 1021 30.15 851 25.13 12.3 54.2 58 4.4 40
13:15 1021 30.15 851 25.13 12.4 54.4 58 4.4 39.9
13:20 1021 30.15 850 25.1 12.5 54.4 59 4.6 40.3
13:25 1021 30.15 850 25.1 12.3 54.2 59 4.5 40.2
13:30 1021 30.15 850 25.1 12.2 53.9 59 4.6 40.2
13:35 1021 30.15 850 25.1 12.1 53.9 60 4.7 40.4
13:40 1021 30.15 850 25.1 12.1 53.8 60 4.7 40.5
13:45 1021 30.15 850 25.1 12 53.7 61 4.7 40.5
13:50 1021 30.15 850 25.1 12 53.6 61 4.8 40.6
13:55 1021 30.15 850 25.1 11.8 53.2 62 4.7 40.5
14:00 1021 30.15 851 25.13 11.8 53.3 62 4.8 40.7
14:05 1021 30.15 851 25.13 11.7 53.1 62 4.8 40.6
14:10 1021 30.15 851 25.13 11.6 53 63 4.8 40.7
14:15 1021 30.15 851 25.13 11.5 52.8 64 4.9 40.8
14:20 1021 30.15 851 25.13 11.7 53.1 63 4.9 40.9
14:25 1021 30.15 850 25.1 12.2 53.9 61 4.9 40.9
14:30 1021 30.15 850 25.1 12.5 54.4 61 5.1 41.2
14:35 1021 30.15 850 25.1 12.8 55 60 5.2 41.3
14:40 1021 30.15 850 25.1 12.7 54.8 60 5.2 41.4
14:45 1021 30.15 850 25.1 12.6 54.6 59 4.8 40.6
14:50 1021 30.15 850 25.1 12.8 55 59 5.1 41.2
14:55 1020 30.12 850 25.1 12.6 54.6 60 5.1 41.2
15:00 1020 30.12 849 25.07 12.2 53.9 62 5.1 41.2
15:05 1020 30.12 849 25.07 12.3 54.1 61 5 41.1
15:10 1020 30.12 849 25.07 12.3 54.2 60 4.9 40.7
15:15 1020 30.12 849 25.07 12.3 54.2 62 5.2 41.4
15:20 1020 30.12 849 25.07 12.3 54.2 62 5.2 41.4
15:25 1020 30.12 849 25.07 12 53.7 62 5 41
15:30 1020 30.12 849 25.07 12.1 53.8 63 5.3 41.5
15:35 1020 30.12 850 25.1 11.9 53.4 63 5.2 41.3
15:40 1021 30.15 850 25.1 11.7 53 64 5.1 41.2
15:45 1021 30.15 850 25.1 11.6 52.8 64 5 41
15:50 1021 30.15 850 25.1 11.5 52.8 63 4.9 40.8
15:55 1021 30.15 850 25.1 11.6 53 63 4.9 40.9
16:00 1021 30.15 850 25.1 12 53.5 62 5 40.9
16:05 1021 30.15 850 25.1 11.9 53.4 63 5.1 41.3
16:10 1020 30.12 850 25.1 11.8 53.2 64 5.2 41.4
16:15 1021 30.15 850 25.1 11.7 53.1 64 5.1 41.1
16:20 1020 30.12 850 25.1 11.7 53 64 5.1 41.2
16:25 1021 30.15 850 25.1 11.6 52.9 64 5 41
16:30 1021 30.15 850 25.1 11.8 53.2 63 5 40.9
16:35 1021 30.15 850 25.1 11.8 53.2 63 5.1 41.2
16:40 1021 30.15 850 25.1 11.4 52.6 65 5.1 41.1
16:45 1021 30.15 850 25.1 11.3 52.4 65 5 41
16:50 1021 30.15 850 25.1 11.4 52.6 65 5.1 41.2
16:55 1021 30.15 850 25.1 11.4 52.5 65 5.1 41.1
17:00 1021 30.15 850 25.1 11.3 52.4 65 5 41
17:05 1021 30.15 850 25.1 11.5 52.6 65 5.2 41.4
17:10 1021 30.15 850 25.1 11.2 52.2 66 5.1 41.2
17:15 1020 30.12 850 25.1 11.1 52 67 5.2 41.4
17:20 1020 30.12 850 25.1 11.1 52 67 5.2 41.4
17:25 1020 30.12 850 25.1 10.9 51.5 67 5.1 41.2
17:30 1020 30.12 850 25.1 10.8 51.4 68 5.1 41.2
17:35 1020 30.12 849 25.07 10.7 51.3 67 5 41
17:40 1020 30.12 849 25.07 10.8 51.4 68 5 41.1
17:45 1020 30.12 849 25.07 10.8 51.4 67 4.9 40.8
17:50 1020 30.12 849 25.07 10.7 51.3 67 5 40.9
17:55 1020 30.12 849 25.07 10.7 51.2 67 4.9 40.8
18:00 1020 30.12 849 25.07 10.6 51 67 4.6 40.3
18:05 1020 30.12 849 25.07 10.5 51 67 4.8 40.6
18:10 1020 30.12 850 25.1 10.4 50.7 68 4.8 40.6
18:15 1020 30.12 850 25.1 10.3 50.6 68 4.7 40.4
18:20 1020 30.12 850 25.1 10.3 50.5 68 4.7 40.5
18:25 1020 30.12 850 25.1 10.2 50.4 69 4.8 40.6
18:30 1020 30.12 850 25.1 10.1 50.3 69 4.7 40.5
18:35 1020 30.12 850 25.1 10.1 50.3 69 4.7 40.4
18:40 1020 30.12 849 25.07 10.1 50.2 69 4.7 40.4
18:45 1020 30.12 849 25.07 10.1 50.1 68 4.5 40.2
18:50 1020 30.12 849 25.07 10.2 50.3 68 4.5 40.1
18:55 1020 30.12 849 25.07 10.2 50.3 67 4.4 39.9
19:00 1020 30.12 850 25.1 10.2 50.4 67 4.4 40
19:05 1020 30.12 850 25.1 10.3 50.5 67 4.5 40
19:10 1020 30.12 850 25.1 10.3 50.5 66 4.2 39.6
19:15 1020 30.12 850 25.1 10.4 50.7 66 4.4 39.9
19:20 1021 30.15 850 25.1 10.4 50.7 65 4.2 39.6
19:25 1021 30.15 850 25.1 10.4 50.8 65 4.2 39.6
19:30 1021 30.15 850 25.1 10.5 50.8 65 4.1 39.4
19:35 1020 30.12 850 25.1 10.5 50.9 64 4.1 39.3
19:40 1020 30.12 850 25.1 10.6 51 64 4.2 39.5
19:45 1020 30.12 850 25.1 10.5 51 65 4.3 39.7
19:50 1020 30.12 850 25.1 10.4 50.8 65 4.3 39.7
19:55 1021 30.15 850 25.1 10.5 50.9 65 4.1 39.5
20:00 1021 30.15 850 25.1 10.5 50.9 65 4.3 39.7
20:05 1021 30.15 850 25.1 10.5 50.9 65 4.2 39.6
20:10 1021 30.15 850 25.1 10.5 50.9 65 4.3 39.8
20:15 1021 30.15 850 25.1 10.5 50.9 65 4.3 39.8
20:20 1021 30.15 850 25.1 10.5 50.9 66 4.4 39.9
20:25 1021 30.15 850 25.1 10.5 50.8 66 4.4 39.9
20:30 1021 30.15 850 25.1 10.4 50.7 66 4.4 39.9
20:35 1021 30.15 850 25.1 10.4 50.7 66 4.4 39.8
20:40 1021 30.15 850 25.1 10.3 50.6 66 4.4 39.9
20:45 1021 30.15 850 25.1 10.3 50.6 67 4.5 40
20:50 1021 30.15 850 25.1 10.3 50.5 67 4.5 40
20:55 1021 30.15 850 25.1 10.2 50.4 67 4.5 40.1
21:00 1021 30.15 850 25.1 10.1 50.2 68 4.5 40
21:05 1021 30.15 850 25.1 10.1 50.1 68 4.4 39.9
21:10 1021 30.15 850 25.1 10.1 50.1 68 4.5 40.1
21:15 1021 30.15 850 25.1 10 50 68 4.5 40
21:20 1021 30.15 850 25.1 10 49.9 69 4.5 40.1
21:25 1021 30.15 850 25.1 9.9 49.8 69 4.5 40
21:30 1021 30.15 850 25.1 9.9 49.8 69 4.5 40.2
21:35 1021 30.15 850 25.1 9.8 49.7 69 4.4 40
21:40 1021 30.15 850 25.1 9.9 49.8 68 4.3 39.8
21:45 1021 30.15 850 25.1 9.9 49.9 68 4.4 39.8
21:50 1021 30.15 850 25.1 9.9 49.9 68 4.4 39.8
21:55 1021 30.15 850 25.1 9.9 49.8 68 4.3 39.8
22:00 1020 30.12 850 25.1 9.9 49.9 68 4.3 39.8
22:05 1020 30.12 850 25.1 9.9 49.9 68 4.3 39.8
22:10 1020 30.12 850 25.1 9.9 49.9 68 4.4 39.9
22:15 1021 30.15 850 25.1 9.9 49.8 69 4.5 40
22:20 1021 30.15 850 25.1 9.9 49.7 69 4.4 40
22:25 1020 30.12 850 25.1 9.9 49.7 69 4.4 39.9
22:30 1021 30.15 850 25.1 9.9 49.8 68 4.4 39.9
22:35 1021 30.15 850 25.1 9.9 49.8 68 4.4 39.9
22:40 1021 30.15 850 25.1 9.9 49.9 68 4.4 39.9
22:45 1021 30.15 850 25.1 10 49.9 68 4.3 39.7
22:50 1021 30.15 850 25.1 10 50 68 4.4 39.8
22:55 1021 30.15 850 25.1 10 50 68 4.3 39.8
23:00 1021 30.15 850 25.1 10 50 68 4.3 39.8
23:05 1021 30.15 850 25.1 10 50 68 4.3 39.8
23:10 1021 30.15 850 25.1 10 49.9 68 4.3 39.8
23:15 1021 30.15 850 25.1 10 49.9 68 4.3 39.8
23:20 1021 30.15 850 25.1 9.9 49.9 68 4.4 39.9
23:25 1021 30.15 850 25.1 9.9 49.7 69 4.4 40
23:30 1021 30.15 850 25.1 9.8 49.6 69 4.4 40
23:35 1021 30.15 850 25.1 9.7 49.5 69 4.4 40
23:40 1021 30.15 850 25.1 9.7 49.4 70 4.5 40.1
23:45 1021 30.15 850 25.1 9.6 49.2 71 4.6 40.3
23:50 1021 30.15 850 25.1 9.5 49.1 72 4.6 40.3
23:55 1021 30.15 850 25.1 9.4 48.8 73 4.7 40.5
24:00 1021 30.15 850 25.1 9.3 48.7 73 4.7 40.4